createdAt,value
2022-09-21T00:01:45.464Z,5.46
2022-09-21T00:04:15.955Z,5.51
2022-09-21T00:06:45.927Z,5.64
2022-09-21T00:09:15.069Z,5.66
2022-09-21T00:11:44.332Z,5.71
2022-09-21T00:14:15.453Z,5.54
2022-09-21T00:16:44.865Z,5.50
2022-09-21T00:19:17.394Z,5.55
2022-09-21T00:21:46.349Z,5.49
2022-09-21T00:24:15.440Z,5.58
2022-09-21T00:26:44.520Z,5.57
2022-09-21T00:29:14.026Z,5.55
2022-09-21T00:31:43.040Z,5.53
2022-09-21T00:34:12.128Z,5.51
2022-09-21T00:36:42.751Z,5.55
2022-09-21T00:39:11.945Z,5.55
2022-09-21T00:41:41.036Z,5.59
2022-09-21T00:44:32.743Z,5.47
2022-09-21T00:47:08.011Z,5.36
2022-09-21T00:49:38.024Z,5.24
2022-09-21T00:52:09.418Z,5.15
2022-09-21T00:54:44.269Z,5.19
2022-09-21T00:57:14.741Z,5.31
2022-09-21T00:59:46.150Z,5.44
2022-09-21T01:02:15.847Z,5.47
2022-09-21T01:04:46.121Z,5.53
2022-09-21T01:07:21.330Z,5.56
2022-09-21T01:09:54.667Z,5.54
2022-09-21T01:12:39.855Z,5.51
2022-09-21T01:15:24.548Z,5.51
2022-09-21T01:18:02.229Z,5.42
2022-09-21T01:21:09.216Z,5.36
2022-09-21T01:23:57.081Z,5.41
2022-09-21T01:26:38.846Z,5.32
2022-09-21T01:29:24.692Z,5.33
2022-09-21T01:32:00.028Z,5.41
2022-09-21T01:34:34.476Z,5.26
2022-09-21T01:37:11.609Z,5.19
2022-09-21T01:39:43.461Z,4.97
2022-09-21T01:42:15.672Z,4.69
2022-09-21T01:44:48.342Z,4.53
2022-09-21T01:47:19.659Z,4.48
2022-09-21T01:49:53.536Z,4.46
2022-09-21T01:52:27.913Z,4.69
2022-09-21T01:55:01.461Z,4.54
2022-09-21T01:57:35.957Z,4.53
2022-09-21T02:00:08.453Z,4.55
2022-09-21T02:02:47.676Z,4.50
2022-09-21T02:05:19.707Z,4.58
2022-09-21T02:07:49.798Z,4.41
2022-09-21T02:10:23.856Z,4.35
2022-09-21T02:12:58.465Z,4.29
2022-09-21T02:15:39.015Z,4.29
2022-09-21T02:18:16.653Z,4.35
2022-09-21T02:20:50.501Z,4.27
2022-09-21T02:23:25.234Z,4.32
2022-09-21T02:26:00.287Z,4.42
2022-09-21T02:28:39.020Z,4.47
2022-09-21T02:31:15.926Z,4.59
2022-09-21T02:33:58.628Z,4.50
2022-09-21T02:36:32.586Z,4.56
2022-09-21T02:39:07.216Z,4.58
2022-09-21T02:41:41.746Z,4.53
2022-09-21T02:44:18.793Z,4.55
2022-09-21T02:46:54.881Z,4.59
2022-09-21T02:49:28.948Z,4.62
2022-09-21T02:52:02.334Z,4.46
2022-09-21T02:54:33.848Z,4.38
2022-09-21T02:57:04.993Z,4.30
2022-09-21T02:59:34.398Z,4.17
2022-09-21T03:02:05.573Z,4.17
2022-09-21T03:04:35.046Z,4.10
2022-09-21T03:07:04.537Z,4.08
2022-09-21T03:09:33.513Z,4.16
2022-09-21T03:12:02.874Z,4.21
2022-09-21T03:14:33.105Z,4.19
2022-09-21T03:17:02.314Z,4.12
2022-09-21T03:19:32.655Z,4.04
2022-09-21T03:22:01.636Z,4.08
2022-09-21T03:24:48.599Z,4.11
2022-09-21T03:27:19.681Z,4.12
2022-09-21T03:29:50.038Z,4.13
2022-09-21T03:32:19.449Z,4.00
2022-09-21T03:34:49.794Z,3.93
2022-09-21T03:37:18.752Z,3.92
2022-09-21T03:39:48.253Z,4.00
2022-09-21T03:42:17.291Z,3.91
2022-09-21T03:44:46.517Z,3.85
2022-09-21T03:47:15.589Z,3.78
2022-09-21T03:49:44.597Z,3.87
2022-09-21T03:52:15.217Z,3.88
2022-09-21T03:54:44.510Z,3.93
2022-09-21T03:57:13.549Z,3.94
2022-09-21T03:59:43.500Z,3.95
2022-09-21T04:02:12.669Z,3.91
2022-09-21T04:04:41.729Z,3.87
2022-09-21T04:07:10.760Z,3.97
2022-09-21T04:09:41.844Z,3.83
2022-09-21T04:12:10.936Z,3.80
2022-09-21T04:14:39.935Z,3.90
2022-09-21T04:17:09.065Z,3.80
2022-09-21T04:19:38.109Z,3.68
2022-09-21T04:22:07.379Z,3.59
2022-09-21T04:24:36.416Z,3.74
2022-09-21T04:27:06.932Z,3.61
2022-09-21T04:29:36.102Z,3.52
2022-09-21T04:32:05.454Z,3.47
2022-09-21T04:34:34.627Z,3.65
2022-09-21T04:37:03.800Z,3.78
2022-09-21T04:39:32.732Z,3.77
2022-09-21T04:42:01.918Z,3.62
2022-09-21T04:44:32.513Z,3.52
2022-09-21T04:47:01.503Z,3.45
2022-09-21T04:49:30.530Z,3.42
2022-09-21T04:51:59.998Z,3.40
2022-09-21T04:54:33.913Z,3.39
2022-09-21T04:57:03.455Z,3.38
2022-09-21T04:59:36.374Z,3.38
2022-09-21T05:02:10.225Z,3.43
2022-09-21T05:04:41.208Z,3.39
2022-09-21T05:07:11.475Z,3.38
2022-09-21T05:09:58.786Z,3.46
2022-09-21T05:12:28.422Z,3.59
2022-09-21T05:14:58.789Z,3.46
2022-09-21T05:17:28.195Z,3.40
2022-09-21T05:19:57.286Z,3.44
2022-09-21T05:22:26.390Z,3.64
2022-09-21T05:24:55.770Z,3.51
2022-09-21T05:27:24.800Z,3.43
2022-09-21T05:29:54.553Z,3.39
2022-09-21T05:32:31.322Z,3.45
2022-09-21T05:35:10.782Z,3.66
2022-09-21T05:37:49.452Z,3.75
2022-09-21T05:40:19.499Z,3.85
2022-09-21T05:42:49.148Z,3.85
2022-09-21T05:45:21.053Z,3.80
2022-09-21T05:47:57.592Z,3.98
2022-09-21T05:50:40.149Z,3.96
2022-09-21T05:53:34.472Z,4.05
2022-09-21T05:56:10.652Z,4.21
2022-09-21T05:58:48.008Z,4.37
2022-09-21T06:01:34.559Z,4.41
2022-09-21T06:04:11.257Z,4.41
2022-09-21T06:06:40.598Z,4.41
2022-09-21T06:09:09.753Z,4.48
2022-09-21T06:11:39.022Z,4.73
2022-09-21T06:14:08.299Z,4.79
2022-09-21T06:16:41.274Z,4.86
2022-09-21T06:19:14.561Z,5.08
2022-09-21T06:21:45.721Z,5.20
2022-09-21T06:24:15.619Z,5.32
2022-09-21T06:26:44.582Z,5.22
2022-09-21T06:29:13.650Z,5.39
2022-09-21T06:31:42.601Z,5.61
2022-09-21T06:34:13.008Z,5.76
2022-09-21T06:36:42.230Z,5.94
2022-09-21T06:39:11.286Z,6.05
2022-09-21T06:41:40.404Z,6.15
2022-09-21T06:44:12.465Z,6.23
2022-09-21T06:46:41.617Z,6.32
2022-09-21T06:49:10.557Z,6.35
2022-09-21T06:51:40.907Z,6.50
2022-09-21T06:54:10.258Z,6.77
2022-09-21T06:56:39.425Z,6.97
2022-09-21T06:59:08.441Z,6.91
2022-09-21T07:01:37.592Z,7.12
2022-09-21T07:04:09.437Z,7.33
2022-09-21T07:06:40.118Z,7.52
2022-09-21T07:11:58.466Z,7.93
2022-09-21T07:14:27.442Z,8.25
2022-09-21T07:16:56.423Z,8.41
2022-09-21T07:19:25.457Z,8.79
2022-09-21T07:21:56.515Z,9.19
2022-09-21T07:24:25.621Z,9.56
2022-09-21T07:26:54.660Z,9.68
2022-09-21T07:29:23.649Z,9.72
2022-09-21T07:31:53.097Z,10.01
2022-09-21T07:34:22.227Z,10.10
2022-09-21T07:36:51.185Z,10.35
2022-09-21T07:39:21.504Z,10.36
2022-09-21T07:41:50.455Z,10.36
2022-09-21T07:44:20.425Z,10.53
2022-09-21T07:46:50.331Z,10.60
2022-09-21T07:49:19.722Z,10.68
2022-09-21T07:51:48.783Z,11.02
2022-09-21T07:54:17.887Z,11.00
2022-09-21T07:57:08.455Z,11.09
2022-09-21T07:59:36.469Z,11.05
2022-09-21T08:02:05.534Z,11.31
2022-09-21T08:04:34.554Z,12.23
2022-09-21T08:07:03.539Z,12.73
2022-09-21T08:09:32.603Z,13.19
2022-09-21T08:12:03.258Z,13.27
2022-09-21T08:14:32.591Z,13.81
2022-09-21T08:17:01.702Z,13.88
2022-09-21T08:19:30.721Z,13.78
2022-09-21T08:21:59.669Z,13.87
2022-09-21T08:24:28.585Z,13.88
2022-09-21T08:26:57.752Z,14.22
2022-09-21T08:29:30.234Z,13.84
2022-09-21T08:31:59.462Z,13.78
2022-09-21T08:34:28.441Z,14.38
2022-09-21T08:36:57.409Z,15.07
2022-09-21T08:39:28.793Z,15.14
2022-09-21T08:42:16.012Z,14.81
2022-09-21T08:44:52.805Z,15.15
2022-09-21T08:47:36.452Z,15.09
2022-09-21T08:50:11.170Z,14.55
2022-09-21T08:52:40.487Z,15.20
2022-09-21T08:55:19.525Z,15.60
2022-09-21T08:57:49.056Z,14.93
2022-09-21T09:00:21.321Z,15.25
2022-09-21T09:03:18.868Z,15.80
2022-09-21T09:05:54.980Z,14.98
2022-09-21T09:08:41.690Z,15.42
2022-09-21T09:11:20.955Z,15.86
2022-09-21T09:14:19.793Z,16.50
2022-09-21T09:16:59.344Z,16.69
2022-09-21T09:19:42.003Z,15.95
2022-09-21T09:22:18.706Z,16.64
2022-09-21T09:24:50.614Z,16.37
2022-09-21T09:27:24.422Z,17.38
2022-09-21T09:30:03.189Z,17.45
2022-09-21T09:32:42.207Z,16.75
2022-09-21T09:35:23.054Z,17.00
2022-09-21T09:37:54.179Z,17.42
2022-09-21T09:40:39.411Z,17.76
2022-09-21T09:43:17.047Z,17.57
2022-09-21T09:45:58.784Z,16.56
2022-09-21T09:48:45.332Z,15.63
2022-09-21T09:51:14.864Z,15.42
2022-09-21T09:53:43.897Z,15.19
2022-09-21T09:56:14.886Z,14.56
2022-09-21T09:58:49.601Z,14.23
2022-09-21T10:01:39.351Z,14.23
2022-09-21T10:04:11.942Z,14.24
2022-09-21T10:06:46.145Z,13.98
2022-09-21T10:09:26.932Z,14.17
2022-09-21T10:12:03.936Z,14.28
2022-09-21T10:14:36.976Z,15.82
2022-09-21T10:17:09.171Z,17.24
2022-09-21T10:19:39.624Z,17.80
2022-09-21T10:22:15.976Z,18.12
2022-09-21T10:24:50.265Z,17.13
2022-09-21T10:27:25.864Z,18.29
2022-09-21T10:29:55.412Z,16.77
2022-09-21T10:32:27.074Z,18.24
2022-09-21T10:35:16.246Z,17.13
2022-09-21T10:37:48.400Z,17.77
2022-09-21T10:40:37.348Z,18.53
2022-09-21T10:43:06.532Z,18.25
2022-09-21T10:45:37.906Z,18.04
2022-09-21T10:48:14.381Z,18.03
2022-09-21T10:50:46.234Z,17.60
2022-09-21T10:53:24.800Z,17.19
2022-09-21T10:56:17.412Z,18.44
2022-09-21T10:59:11.607Z,17.71
2022-09-21T11:01:46.387Z,17.58
2022-09-21T11:04:21.316Z,17.78
2022-09-21T11:06:55.863Z,16.91
2022-09-21T11:09:30.687Z,16.32
2022-09-21T11:12:05.338Z,16.30
2022-09-21T11:14:46.083Z,15.99
2022-09-21T11:17:23.171Z,15.86
2022-09-21T11:19:58.471Z,17.08
2022-09-21T11:22:36.530Z,18.62
2022-09-21T11:25:26.376Z,18.83
2022-09-21T11:28:02.713Z,18.77
2022-09-21T11:30:42.805Z,19.09
2022-09-21T11:33:42.041Z,17.94
2022-09-21T11:36:23.214Z,15.55
2022-09-21T11:39:04.293Z,15.32
2022-09-21T11:41:51.712Z,15.31
2022-09-21T11:44:41.030Z,15.84
2022-09-21T11:47:23.793Z,15.84
2022-09-21T11:50:29.163Z,15.61
2022-09-21T11:53:12.284Z,15.45
2022-09-21T11:55:58.467Z,15.47
2022-09-21T11:58:33.474Z,15.17
2022-09-21T12:01:15.111Z,15.28
2022-09-21T12:04:03.598Z,15.21
2022-09-21T12:06:44.713Z,15.25
2022-09-21T12:09:43.826Z,15.01
2022-09-21T12:12:20.246Z,15.45
2022-09-21T12:14:59.575Z,15.86
2022-09-21T12:17:40.837Z,15.70
2022-09-21T12:20:19.077Z,15.54
2022-09-21T12:22:53.180Z,15.41
2022-09-21T12:25:25.937Z,15.57
2022-09-21T12:28:03.328Z,17.29
2022-09-21T12:30:34.977Z,18.04
2022-09-21T12:33:11.170Z,18.85
2022-09-21T12:35:44.270Z,18.75
2022-09-21T12:38:17.600Z,18.65
2022-09-21T12:40:52.285Z,18.61
2022-09-21T12:43:32.071Z,19.04
2022-09-21T12:46:04.510Z,18.24
2022-09-21T12:48:37.639Z,18.74
2022-09-21T12:51:15.484Z,19.29
2022-09-21T12:53:50.770Z,19.59
2022-09-21T12:56:32.967Z,18.69
2022-09-21T12:59:14.767Z,19.68
2022-09-21T13:01:54.806Z,19.00
2022-09-21T13:04:47.013Z,19.37
2022-09-21T13:07:49.641Z,18.76
2022-09-21T13:10:31.445Z,19.22
2022-09-21T13:13:03.660Z,19.72
2022-09-21T13:15:47.232Z,20.05
2022-09-21T13:18:23.324Z,19.56
2022-09-21T13:20:55.508Z,18.33
2022-09-21T13:23:29.284Z,17.37
2022-09-21T13:26:05.450Z,17.54
2022-09-21T13:29:20.473Z,16.95
2022-09-21T13:32:02.177Z,17.35
2022-09-21T13:34:34.448Z,16.71
2022-09-21T13:37:33.859Z,16.35
2022-09-21T13:40:39.858Z,17.03
2022-09-21T13:43:20.301Z,17.54
2022-09-21T13:45:59.526Z,18.87
2022-09-21T13:48:30.637Z,20.01
2022-09-21T13:51:02.742Z,18.92
2022-09-21T13:53:38.411Z,20.07
2022-09-21T13:56:19.758Z,19.46
2022-09-21T13:58:53.649Z,19.31
2022-09-21T14:04:25.656Z,19.52
2022-09-21T14:06:56.589Z,19.19
2022-09-21T14:09:29.538Z,18.60
2022-09-21T14:12:03.481Z,18.87
2022-09-21T14:14:37.104Z,18.88
2022-09-21T14:17:07.255Z,18.67
2022-09-21T14:20:29.524Z,20.02
2022-09-21T14:23:38.296Z,20.02
2022-09-21T14:26:33.715Z,20.24
2022-09-21T14:29:15.453Z,20.17
2022-09-21T14:31:45.166Z,19.33
2022-09-21T14:34:23.445Z,19.50
2022-09-21T14:36:57.512Z,19.41
2022-09-21T14:39:33.671Z,19.23
2022-09-21T14:42:12.434Z,19.68
2022-09-21T14:44:43.418Z,19.77
2022-09-21T14:47:28.488Z,20.14
2022-09-21T14:50:15.008Z,19.64
2022-09-21T14:53:08.031Z,19.55
2022-09-21T14:55:56.037Z,19.61
2022-09-21T14:58:42.954Z,19.63
2022-09-21T15:01:27.856Z,19.83
2022-09-21T15:04:26.696Z,20.17
2022-09-21T15:07:23.797Z,19.32
2022-09-21T15:10:39.519Z,18.59
2022-09-21T15:13:24.157Z,19.75
2022-09-21T15:16:11.804Z,19.56
2022-09-21T15:18:44.288Z,19.62
2022-09-21T15:21:26.562Z,19.28
2022-09-21T15:23:57.036Z,19.24
2022-09-21T15:26:30.756Z,19.71
2022-09-21T15:29:10.031Z,18.83
2022-09-21T15:31:44.026Z,18.97
2022-09-21T15:34:16.288Z,18.89
2022-09-21T15:36:49.116Z,18.27
2022-09-21T15:39:27.526Z,18.03
2022-09-21T15:42:17.926Z,18.29
2022-09-21T15:44:50.516Z,18.31
2022-09-21T15:47:23.116Z,18.41
2022-09-21T15:49:56.863Z,17.97
2022-09-21T15:52:32.494Z,18.19
2022-09-21T15:55:09.932Z,18.03
2022-09-21T15:57:42.940Z,16.99
2022-09-21T16:00:23.563Z,16.94
2022-09-21T16:03:05.369Z,16.56
2022-09-21T16:05:46.040Z,16.34
2022-09-21T16:08:28.311Z,16.08
2022-09-21T16:11:17.601Z,15.93
2022-09-21T16:14:05.735Z,15.88
2022-09-21T16:17:07.320Z,15.90
2022-09-21T16:19:44.571Z,15.87
2022-09-21T16:22:18.158Z,15.90
2022-09-21T16:24:53.010Z,15.85
2022-09-21T16:27:27.815Z,15.77
2022-09-21T16:29:58.665Z,15.67
2022-09-21T16:32:34.127Z,15.58
2022-09-21T16:35:25.337Z,15.55
2022-09-21T16:37:58.780Z,15.37
2022-09-21T16:40:28.221Z,15.27
2022-09-21T16:42:58.581Z,15.12
2022-09-21T16:45:31.598Z,14.96
2022-09-21T16:48:02.875Z,14.85
2022-09-21T16:50:31.938Z,14.76
2022-09-21T16:53:00.951Z,14.57
2022-09-21T16:55:30.078Z,14.47
2022-09-21T16:58:00.198Z,14.47
2022-09-21T17:00:37.426Z,14.36
2022-09-21T17:03:07.949Z,14.20
2022-09-21T17:05:37.017Z,14.05
2022-09-21T17:08:06.029Z,13.97
2022-09-21T17:10:39.984Z,13.95
2022-09-21T17:13:10.128Z,13.81
2022-09-21T17:15:44.319Z,13.66
2022-09-21T17:18:15.762Z,13.50
2022-09-21T17:20:46.200Z,13.30
2022-09-21T17:23:15.742Z,13.31
2022-09-21T17:25:48.055Z,13.15
2022-09-21T17:28:23.543Z,13.09
2022-09-21T17:30:53.231Z,12.95
2022-09-21T17:33:26.115Z,12.95
2022-09-21T17:35:56.395Z,12.80
2022-09-21T17:38:25.729Z,12.81
2022-09-21T17:40:55.175Z,12.74
2022-09-21T17:43:38.154Z,12.71
2022-09-21T17:46:16.129Z,12.63
2022-09-21T17:48:47.176Z,12.56
2022-09-21T17:51:37.173Z,12.45
2022-09-21T17:54:06.785Z,12.39
2022-09-21T17:56:43.835Z,12.36
2022-09-21T17:59:31.592Z,12.27
2022-09-21T18:02:01.223Z,12.19
2022-09-21T18:04:35.300Z,12.05
2022-09-21T18:07:06.127Z,12.02
2022-09-21T18:09:37.079Z,12.01
2022-09-21T18:12:38.222Z,11.97
2022-09-21T18:15:15.968Z,11.99
2022-09-21T18:17:58.518Z,12.00
2022-09-21T18:20:50.026Z,11.88
2022-09-21T18:23:27.116Z,11.83
2022-09-21T18:25:58.545Z,11.66
2022-09-21T18:28:40.185Z,11.43
2022-09-21T18:31:36.917Z,11.17
2022-09-21T18:34:23.027Z,10.99
2022-09-21T18:37:09.328Z,11.00
2022-09-21T18:39:55.817Z,10.92
2022-09-21T18:42:40.180Z,10.88
2022-09-21T18:45:15.937Z,10.77
2022-09-21T18:47:55.032Z,10.69
2022-09-21T18:50:34.408Z,10.68
2022-09-21T18:53:14.978Z,10.65
2022-09-21T18:55:45.569Z,10.47
2022-09-21T18:58:17.834Z,10.45
2022-09-21T19:00:48.448Z,10.41
2022-09-21T19:03:19.747Z,10.36
2022-09-21T19:06:02.951Z,10.45
2022-09-21T19:08:41.014Z,10.52
2022-09-21T19:11:18.679Z,10.63
2022-09-21T19:14:01.357Z,10.62
2022-09-21T19:16:36.048Z,10.63
2022-09-21T19:19:24.369Z,10.59
2022-09-21T19:21:59.894Z,10.49
2022-09-21T19:24:38.027Z,10.45
2022-09-21T19:27:29.672Z,10.41
2022-09-21T19:30:07.156Z,10.39
2022-09-21T19:32:45.767Z,10.37
2022-09-21T19:35:22.907Z,10.37
2022-09-21T19:37:56.964Z,10.47
2022-09-21T19:40:31.228Z,10.46
2022-09-21T19:43:20.813Z,10.39
2022-09-21T19:46:08.540Z,10.28
2022-09-21T19:48:44.303Z,10.31
2022-09-21T19:51:21.358Z,10.30
2022-09-21T19:54:14.753Z,10.27
2022-09-21T19:57:07.478Z,10.19
2022-09-21T19:59:44.905Z,10.16
2022-09-21T20:02:18.702Z,10.20
2022-09-21T20:04:55.901Z,10.26
2022-09-21T20:07:47.380Z,10.23
2022-09-21T20:10:55.524Z,10.11
2022-09-21T20:13:50.195Z,10.03
2022-09-21T20:16:32.245Z,9.93
2022-09-21T20:19:11.373Z,9.78
2022-09-21T20:21:43.056Z,9.62
2022-09-21T20:24:21.499Z,9.55
2022-09-21T20:26:51.992Z,9.42
2022-09-21T20:29:23.220Z,9.33
2022-09-21T20:31:53.910Z,9.23
2022-09-21T20:34:23.194Z,9.15
2022-09-21T20:36:52.517Z,9.08
2022-09-21T20:39:21.714Z,8.99
2022-09-21T20:41:53.602Z,8.89
2022-09-21T20:44:24.333Z,8.75
2022-09-21T20:46:53.254Z,8.70
2022-09-21T20:49:22.217Z,8.65
2022-09-21T20:51:51.522Z,8.56
2022-09-21T20:54:23.234Z,8.54
2022-09-21T20:56:52.505Z,8.65
2022-09-21T20:59:22.825Z,8.76
2022-09-21T21:01:52.383Z,8.73
2022-09-21T21:04:21.764Z,8.76
2022-09-21T21:06:50.902Z,8.79
2022-09-21T21:09:20.063Z,8.85
2022-09-21T21:11:49.160Z,8.90
2022-09-21T21:14:18.485Z,8.91
2022-09-21T21:16:49.366Z,8.89
2022-09-21T21:19:18.552Z,8.81
2022-09-21T21:21:47.537Z,8.75
2022-09-21T21:24:34.278Z,8.68
2022-09-21T21:27:03.708Z,8.77
2022-09-21T21:29:33.258Z,8.75
2022-09-21T21:32:04.089Z,8.84
2022-09-21T21:34:33.288Z,8.86
2022-09-21T21:37:02.253Z,8.88
2022-09-21T21:39:31.528Z,8.95
2022-09-21T21:42:00.732Z,8.89
2022-09-21T21:44:29.948Z,8.56
2022-09-21T21:47:10.270Z,8.30
2022-09-21T21:49:49.900Z,8.16
2022-09-21T21:52:18.851Z,7.96
2022-09-21T21:54:47.783Z,7.85
2022-09-21T21:57:16.685Z,7.82
2022-09-21T21:59:45.683Z,7.70
2022-09-21T22:02:15.328Z,7.71
2022-09-21T22:04:44.447Z,7.56
2022-09-21T22:07:14.778Z,7.45
2022-09-21T22:09:43.722Z,7.40
2022-09-21T22:12:12.974Z,7.27
2022-09-21T22:14:41.955Z,7.28
2022-09-21T22:17:10.915Z,7.31
2022-09-21T22:19:40.287Z,7.34
2022-09-21T22:22:09.388Z,7.40
2022-09-21T22:24:39.741Z,7.43
2022-09-21T22:27:08.896Z,7.42
2022-09-21T22:29:39.469Z,7.33
2022-09-21T22:32:08.543Z,7.26
2022-09-21T22:34:37.817Z,7.22
2022-09-21T22:37:06.781Z,7.37
2022-09-21T22:39:36.224Z,7.40
2022-09-21T22:42:06.977Z,7.47
2022-09-21T22:44:35.867Z,7.44
2022-09-21T22:47:05.122Z,7.53
2022-09-21T22:49:34.216Z,7.60
2022-09-21T22:52:03.413Z,7.54
2022-09-21T22:54:32.369Z,7.61
2022-09-21T22:57:01.364Z,7.55
2022-09-21T22:59:31.643Z,7.66
2022-09-21T23:02:00.586Z,7.62
2022-09-21T23:04:29.675Z,7.57
2022-09-21T23:06:58.631Z,7.46
2022-09-21T23:09:27.573Z,7.34
2022-09-21T23:11:56.548Z,7.14
2022-09-21T23:14:25.770Z,6.99
2022-09-21T23:16:56.144Z,6.92
2022-09-21T23:19:25.237Z,7.04
2022-09-21T23:21:54.290Z,6.97
2022-09-21T23:24:23.338Z,6.95
2022-09-21T23:26:52.683Z,7.09
2022-09-21T23:29:21.699Z,7.15
2022-09-21T23:31:50.685Z,7.04
2022-09-21T23:34:21.336Z,6.91
2022-09-21T23:36:50.290Z,6.84
2022-09-21T23:39:19.301Z,6.77
2022-09-21T23:41:48.298Z,6.75
2022-09-21T23:44:17.248Z,6.62
2022-09-21T23:46:46.342Z,6.63
2022-09-21T23:49:15.378Z,6.59
2022-09-21T23:51:45.655Z,6.50
2022-09-21T23:54:16.136Z,6.38
2022-09-21T23:56:45.384Z,6.34
2022-09-21T23:59:14.387Z,6.28
